Hauptseite
METAR-TAF:

METAR-TAF

Flughäfen :

RAF Scampton

Scampton, England

Breite: 53-18-27N, Länge: 000-33-03W, Höhe: 62 m

Beobachtung

Neuester Wetterbericht von vor 1 Stunde und 19 Minuten, um 02:50 UTC
Wind 1 kt aus Nord
Temperatur 0°C
Luftfeuchtigkeit 93%
Luftdruck 1022 hPa
Sichtweite 10 km oder mehr

METAR: EGXP 140250Z AUTO 01001KT 9999 // BKN044/// M00/M01 Q1022

Zeit: 04:09 (04:09 UTC)

Prognose

Neuester Wetterbericht von vor 20 Stunden und 21 Minuten, um 07:48 UTC
Gültige Prognose vom 13 um 09 UTC bis 13 um 17 UTC
Wind 14 kt aus Ost/Südost
Sichtweite 10 km oder mehr
Aufgelockert bewölkt in der Höhe von 3500 ft

TAF: EGXP 130748Z 1309/1317 12014KT 9999 SCT035

Wetterbeobachtungen und Prognosen von mehr als 4000 Flughäfen (METAR und TAF Bericht).

Die verfügbaren Stationen werden durch gelbe und rote Markierungen auf der Karte dargestellt.

Führen Sie die Maus auf sie, um den Namen der Station zu sehen.

Darauf klicken, um die Beobachtung von Wetterbeobachtungen und Prognosen zu sehen.

Um die Karte zu ändern : klicken Sie auf den grünen Tasten mit einem schwarzen Kreuz Zum Vergrößern, auf den grünen Button mit einem Gedankenstrich zu verkleinern, oder auf die grünen Pfeile für benachbarte Karten.


METAR-TAF: